Time,TemperatureF,DewpointF,PressureIn,WindDirection,WindDirectionDegrees,WindSpeedMPH,WindSpeedGustMPH,Humidity,HourlyPrecipIn,Conditions,Clouds,dailyrainin,SoftwareType,DateUTC
2013-02-02 00:14:00,21.2,6.0,30.05,WSW,248,0.0,-999.0,52,-99.99,,,0.00,weatherlink.com 1.10,2013-02-02 05:14:00,
2013-02-02 00:29:00,20.9,7.0,30.05,WSW,251,0.0,-999.0,54,-99.99,,,0.00,weatherlink.com 1.10,2013-02-02 05:29:00,
2013-02-02 00:44:00,20.6,7.0,30.05,WNW,302,0.0,-999.0,55,-99.99,,,0.00,weatherlink.com 1.10,2013-02-02 05:44:00,
2013-02-02 00:59:00,20.7,7.0,30.05,WNW,298,0.0,-999.0,55,-99.99,,,0.00,weatherlink.com 1.10,2013-02-02 05:59:00,
2013-02-02 01:14:00,20.5,9.0,30.07,WNW,288,0.0,-999.0,61,-99.99,,,0.00,weatherlink.com 1.10,2013-02-02 06:14:00,
2013-02-02 01:29:00,20.5,7.0,30.07,WNW,290,0.0,-999.0,56,-99.99,,,0.00,weatherlink.com 1.10,2013-02-02 06:29:00,
2013-02-02 01:44:00,20.4,7.0,30.08,West,267,0.0,-999.0,56,-99.99,,,0.00,weatherlink.com 1.10,2013-02-02 06:44:00,
2013-02-02 01:59:00,20.1,7.0,30.09,WNW,288,0.0,-999.0,57,-99.99,,,0.00,weatherlink.com 1.10,2013-02-02 06:59:00,
2013-02-02 02:14:00,19.9,8.0,30.09,NW,319,0.0,-999.0,59,-99.99,,,0.00,weatherlink.com 1.10,2013-02-02 07:14:00,
2013-02-02 02:29:00,19.7,8.0,30.09,WNW,284,0.0,-999.0,60,-99.99,,,0.00,weatherlink.com 1.10,2013-02-02 07:29:00,
2013-02-02 02:44:00,20.0,8.0,30.09,WNW,298,0.0,-999.0,59,-99.99,,,0.00,weatherlink.com 1.10,2013-02-02 07:44:00,
2013-02-02 02:59:00,19.8,7.0,30.09,WNW,285,0.0,-999.0,59,-99.99,,,0.00,weatherlink.com 1.10,2013-02-02 07:59:00,
2013-02-02 03:14:00,19.5,7.0,30.10,WNW,290,0.0,-999.0,58,-99.99,,,0.00,weatherlink.com 1.10,2013-02-02 08:14:00,
2013-02-02 03:29:00,19.3,7.0,30.11,WNW,284,0.0,-999.0,59,-99.99,,,0.00,weatherlink.com 1.10,2013-02-02 08:29:00,
2013-02-02 03:44:00,18.8,6.0,30.11,WNW,296,0.0,-999.0,58,-99.99,,,0.00,weatherlink.com 1.10,2013-02-02 08:44:00,
2013-02-02 03:59:00,18.8,6.0,30.11,WNW,286,0.0,-999.0,58,-99.99,,,0.00,weatherlink.com 1.10,2013-02-02 08:59:00,
2013-02-02 04:14:00,18.5,6.0,30.12,West,275,0.0,-999.0,58,-99.99,,,0.00,weatherlink.com 1.10,2013-02-02 09:14:00,
2013-02-02 04:29:00,18.4,6.0,30.13,West,262,0.0,-999.0,59,-99.99,,,0.00,weatherlink.com 1.10,2013-02-02 09:29:00,
2013-02-02 04:44:00,18.0,6.0,30.14,WNW,283,0.0,-999.0,60,-99.99,,,0.00,weatherlink.com 1.10,2013-02-02 09:44:00,
2013-02-02 04:59:00,17.5,6.0,30.14,West,279,0.0,-999.0,62,-99.99,,,0.00,weatherlink.com 1.10,2013-02-02 09:59:00,
2013-02-02 05:14:00,16.8,7.0,30.15,West,277,0.0,-999.0,65,-99.99,,,0.00,weatherlink.com 1.10,2013-02-02 10:14:00,
2013-02-02 05:29:00,17.2,6.0,30.15,NW,309,0.0,-999.0,61,-99.99,,,0.00,weatherlink.com 1.10,2013-02-02 10:29:00,
2013-02-02 05:44:00,16.9,5.0,30.15,WNW,292,0.0,-999.0,61,-99.99,,,0.00,weatherlink.com 1.10,2013-02-02 10:44:00,
2013-02-02 05:59:00,16.0,6.0,30.16,WNW,286,0.0,-999.0,66,-99.99,,,0.00,weatherlink.com 1.10,2013-02-02 10:59:00,
2013-02-02 06:14:00,15.9,6.0,30.16,West,277,0.0,-999.0,66,-99.99,,,0.00,weatherlink.com 1.10,2013-02-02 11:14:00,
2013-02-02 06:29:00,16.2,6.0,30.16,WSW,256,0.0,-999.0,65,-99.99,,,0.00,weatherlink.com 1.10,2013-02-02 11:29:00,
2013-02-02 06:44:00,16.1,6.0,30.17,WSW,258,0.0,-999.0,64,-99.99,,,0.00,weatherlink.com 1.10,2013-02-02 11:44:00,
2013-02-02 06:59:00,16.1,5.0,30.18,West,266,0.0,-999.0,63,-99.99,,,0.00,weatherlink.com 1.10,2013-02-02 11:59:00,
2013-02-02 07:14:00,15.6,6.0,30.18,West,265,0.0,-999.0,65,-99.99,,,0.00,weatherlink.com 1.10,2013-02-02 12:14:00,
2013-02-02 07:29:00,15.5,6.0,30.19,SSW,198,0.0,-999.0,67,-99.99,,,0.00,weatherlink.com 1.10,2013-02-02 12:29:00,
2013-02-02 07:44:00,15.7,9.0,30.19,SSW,199,0.0,-999.0,74,-99.99,,,0.00,weatherlink.com 1.10,2013-02-02 12:44:00,
2013-02-02 07:59:00,17.0,6.0,30.19,SSW,213,0.0,-999.0,62,-99.99,,,0.00,weatherlink.com 1.10,2013-02-02 12:59:00,
2013-02-02 08:14:00,17.7,6.0,30.20,SW,215,0.0,-999.0,60,-99.99,,,0.00,weatherlink.com 1.10,2013-02-02 13:14:00,
2013-02-02 08:29:00,18.2,5.0,30.20,WNW,288,0.0,-999.0,57,-99.99,,,0.00,weatherlink.com 1.10,2013-02-02 13:29:00,
2013-02-02 08:44:00,18.9,5.0,30.20,NW,307,0.0,-999.0,56,-99.99,,,0.00,weatherlink.com 1.10,2013-02-02 13:44:00,
2013-02-02 08:59:00,19.4,5.0,30.20,WNW,296,0.0,-999.0,53,-99.99,,,0.00,weatherlink.com 1.10,2013-02-02 13:59:00,
2013-02-02 09:14:00,20.2,5.0,30.21,WNW,290,0.0,-999.0,51,-99.99,,,0.00,weatherlink.com 1.10,2013-02-02 14:14:00,
2013-02-02 09:29:00,20.8,5.0,30.20,NW,306,0.0,-999.0,50,-99.99,,,0.00,weatherlink.com 1.10,2013-02-02 14:29:00,
2013-02-02 09:44:00,20.8,4.0,30.20,West,277,0.0,-999.0,49,-99.99,,,0.00,weatherlink.com 1.10,2013-02-02 14:44:00,
2013-02-02 09:59:00,21.8,5.0,30.20,SW,234,0.0,-999.0,49,-99.99,,,0.00,weatherlink.com 1.10,2013-02-02 14:59:00,
2013-02-02 10:14:00,22.5,5.0,30.19,WSW,239,0.0,-999.0,47,-99.99,,,0.00,weatherlink.com 1.10,2013-02-02 15:14:00,
2013-02-02 10:29:00,23.4,5.0,30.18,SSW,213,0.0,-999.0,46,-99.99,,,0.00,weatherlink.com 1.10,2013-02-02 15:29:00,
2013-02-02 10:44:00,24.6,7.0,30.18,WSW,243,0.0,-999.0,47,-99.99,,,0.00,weatherlink.com 1.10,2013-02-02 15:44:00,
2013-02-02 10:59:00,24.3,6.0,30.17,SE,146,0.0,-999.0,45,-99.99,,,0.00,weatherlink.com 1.10,2013-02-02 15:59:00,
2013-02-02 11:14:00,25.6,7.0,30.17,SW,222,0.0,-999.0,45,-99.99,,,0.00,weatherlink.com 1.10,2013-02-02 16:14:00,
2013-02-02 11:29:00,25.6,7.0,30.16,WSW,245,0.0,-999.0,45,-99.99,,,0.00,weatherlink.com 1.10,2013-02-02 16:29:00,
2013-02-02 11:44:00,26.0,7.0,30.15,WSW,255,0.0,-999.0,45,-99.99,,,0.00,weatherlink.com 1.10,2013-02-02 16:44:00,
2013-02-02 11:59:00,26.0,7.0,30.13,South,186,0.0,-999.0,45,-99.99,,,0.00,weatherlink.com 1.10,2013-02-02 16:59:00,
2013-02-02 12:14:00,27.1,7.0,30.13,SW,225,0.0,-999.0,43,-99.99,,,0.00,weatherlink.com 1.10,2013-02-02 17:14:00,
2013-02-02 12:29:00,27.6,8.0,30.12,SSW,212,0.0,-999.0,44,-99.99,,,0.00,weatherlink.com 1.10,2013-02-02 17:29:00,
2013-02-02 12:44:00,28.4,7.0,30.11,SSW,207,0.0,-999.0,41,-99.99,,,0.00,weatherlink.com 1.10,2013-02-02 17:44:00,
2013-02-02 12:59:00,28.3,9.0,30.10,SSE,158,0.0,-999.0,44,-99.99,,,0.00,weatherlink.com 1.10,2013-02-02 17:59:00,
2013-02-02 13:14:00,28.9,8.0,30.10,SSW,212,0.0,-999.0,42,-99.99,,,0.00,weatherlink.com 1.10,2013-02-02 18:14:00,
2013-02-02 13:29:00,28.1,8.0,30.09,SSW,200,0.0,-999.0,43,-99.99,,,0.00,weatherlink.com 1.10,2013-02-02 18:29:00,
2013-02-02 13:44:00,28.5,8.0,30.08,West,279,0.0,-999.0,43,-99.99,,,0.00,weatherlink.com 1.10,2013-02-02 18:44:00,
2013-02-02 13:59:00,29.2,9.0,30.08,SSW,202,0.0,-999.0,43,-99.99,,,0.00,weatherlink.com 1.10,2013-02-02 18:59:00,
2013-02-02 14:14:00,29.3,9.0,30.07,SW,232,0.0,-999.0,42,-99.99,,,0.00,weatherlink.com 1.10,2013-02-02 19:14:00,
2013-02-02 14:29:00,28.6,10.0,30.06,SSW,202,0.0,-999.0,45,-99.99,,,0.00,weatherlink.com 1.10,2013-02-02 19:29:00,
2013-02-02 14:44:00,28.9,10.0,30.06,SW,215,0.0,-999.0,45,-99.99,,,0.00,weatherlink.com 1.10,2013-02-02 19:44:00,
2013-02-02 14:59:00,29.2,10.0,30.05,SSE,153,0.0,-999.0,44,-99.99,,,0.00,weatherlink.com 1.10,2013-02-02 19:59:00,
2013-02-02 15:14:00,28.8,9.0,30.05,WSW,250,0.0,-999.0,44,-99.99,,,0.00,weatherlink.com 1.10,2013-02-02 20:14:00,
2013-02-02 15:29:00,28.7,9.0,30.05,South,189,0.0,-999.0,44,-99.99,,,0.00,weatherlink.com 1.10,2013-02-02 20:29:00,
2013-02-02 15:44:00,28.7,9.0,30.04,WSW,239,0.0,-999.0,44,-99.99,,,0.00,weatherlink.com 1.10,2013-02-02 20:44:00,
2013-02-02 15:59:00,28.7,10.0,30.04,SW,218,0.0,-999.0,45,-99.99,,,0.00,weatherlink.com 1.10,2013-02-02 20:59:00,
2013-02-02 16:14:00,28.6,10.0,30.03,SSW,194,0.0,-999.0,45,-99.99,,,0.00,weatherlink.com 1.10,2013-02-02 21:14:00,
2013-02-02 16:29:00,28.5,9.0,30.03,South,186,0.0,-999.0,44,-99.99,,,0.00,weatherlink.com 1.10,2013-02-02 21:29:00,
2013-02-02 16:44:00,28.4,9.0,30.02,SSW,212,0.0,-999.0,45,-99.99,,,0.00,weatherlink.com 1.10,2013-02-02 21:44:00,
2013-02-02 16:59:00,28.2,10.0,30.02,South,170,0.0,-999.0,46,-99.99,,,0.00,weatherlink.com 1.10,2013-02-02 21:59:00,
2013-02-02 17:14:00,27.9,9.0,30.02,SSE,153,0.0,-999.0,46,-99.99,,,0.00,weatherlink.com 1.10,2013-02-02 22:14:00,
2013-02-02 17:29:00,27.8,9.0,30.03,SW,218,0.0,-999.0,45,-99.99,,,0.00,weatherlink.com 1.10,2013-02-02 22:29:00,
2013-02-02 17:44:00,27.8,8.0,30.03,SSW,204,0.0,-999.0,44,-99.99,,,0.00,weatherlink.com 1.10,2013-02-02 22:44:00,
2013-02-02 17:59:00,27.5,8.0,30.02,SSW,210,0.0,-999.0,44,-99.99,,,0.00,weatherlink.com 1.10,2013-02-02 22:59:00,
2013-02-02 18:14:00,27.2,8.0,30.03,South,175,0.0,-999.0,45,-99.99,,,0.00,weatherlink.com 1.10,2013-02-02 23:14:00,
2013-02-02 18:29:00,27.2,9.0,30.03,South,184,0.0,-999.0,47,-99.99,,,0.00,weatherlink.com 1.10,2013-02-02 23:29:00,
2013-02-02 18:44:00,26.8,9.0,30.02,SSW,198,0.0,-999.0,47,-99.99,,,0.00,weatherlink.com 1.10,2013-02-02 23:44:00,
2013-02-02 18:59:00,26.3,9.0,30.02,South,182,0.0,-999.0,49,-99.99,,,0.00,weatherlink.com 1.10,2013-02-02 23:59:00,
2013-02-02 19:14:00,26.4,9.0,30.02,SSE,161,0.0,-999.0,49,-99.99,,,0.00,weatherlink.com 1.10,2013-02-03 00:14:00,
2013-02-02 19:29:00,26.6,10.0,30.02,SSW,196,0.0,-999.0,50,-99.99,,,0.00,weatherlink.com 1.10,2013-02-03 00:29:00,
2013-02-02 19:44:00,26.5,10.0,30.02,South,188,0.0,-999.0,51,-99.99,,,0.00,weatherlink.com 1.10,2013-02-03 00:44:00,
2013-02-02 19:59:00,26.6,11.0,30.02,SW,234,0.0,-999.0,53,-99.99,,,0.00,weatherlink.com 1.10,2013-02-03 00:59:00,
2013-02-02 20:14:00,26.5,11.0,30.02,SSW,198,0.0,-999.0,53,-99.99,,,0.00,weatherlink.com 1.10,2013-02-03 01:14:00,
2013-02-02 20:29:00,26.3,11.0,30.02,SSW,207,0.0,-999.0,53,-99.99,,,0.00,weatherlink.com 1.10,2013-02-03 01:29:00,
2013-02-02 20:44:00,26.4,12.0,30.02,South,188,0.0,-999.0,54,-99.99,,,0.00,weatherlink.com 1.10,2013-02-03 01:44:00,
2013-02-02 20:59:00,26.2,11.0,30.02,SW,215,0.0,-999.0,54,-99.99,,,0.00,weatherlink.com 1.10,2013-02-03 01:59:00,
2013-02-02 21:14:00,25.8,12.0,30.02,SW,223,0.0,-999.0,56,-99.99,,,0.00,weatherlink.com 1.10,2013-02-03 02:14:00,
2013-02-02 21:29:00,25.6,12.0,30.02,SSW,207,0.0,-999.0,56,-99.99,,,0.00,weatherlink.com 1.10,2013-02-03 02:29:00,
2013-02-02 21:44:00,25.5,13.0,30.02,SSW,208,0.0,-999.0,59,-99.99,,,0.00,weatherlink.com 1.10,2013-02-03 02:44:00,
2013-02-02 21:59:00,25.4,12.0,30.02,SSW,209,0.0,-999.0,58,-99.99,,,0.00,weatherlink.com 1.10,2013-02-03 02:59:00,
2013-02-02 22:14:00,25.5,12.0,30.01,SSW,209,0.0,-999.0,57,-99.99,,,0.00,weatherlink.com 1.10,2013-02-03 03:14:00,
2013-02-02 22:29:00,25.5,12.0,30.01,SSW,209,0.0,-999.0,57,-99.99,,,0.00,weatherlink.com 1.10,2013-02-03 03:29:00,
2013-02-02 22:44:00,25.5,12.0,30.01,SSW,209,0.0,-999.0,57,-99.99,,,0.00,weatherlink.com 1.10,2013-02-03 03:44:00,
2013-02-02 22:59:00,25.8,12.0,30.01,SW,236,0.0,-999.0,55,-99.99,,,0.00,weatherlink.com 1.10,2013-02-03 03:59:00,
2013-02-02 23:14:00,25.9,12.0,30.01,SW,236,0.0,-999.0,56,-99.99,,,0.00,weatherlink.com 1.10,2013-02-03 04:14:00,
2013-02-02 23:29:00,25.9,12.0,30.01,SSW,200,0.0,-999.0,56,-99.99,,,0.00,weatherlink.com 1.10,2013-02-03 04:29:00,
2013-02-02 23:44:00,25.8,12.0,30.01,West,263,0.0,-999.0,57,-99.99,,,0.00,weatherlink.com 1.10,2013-02-03 04:44:00,
2013-02-02 23:59:00,25.6,13.0,30.02,West,281,0.0,-999.0,59,-99.99,,,0.00,weatherlink.com 1.10,2013-02-03 04:59:00,